sensor_id;sensor_type;location;lat;lon;timestamp;temperature;humidity
38325;DHT22;24126;52.672;13.622;2024-02-15T00:00:29;13.80;87.90
38325;DHT22;24126;52.672;13.622;2024-02-15T00:02:58;13.70;88.00
38325;DHT22;24126;52.672;13.622;2024-02-15T00:05:26;13.80;88.10
38325;DHT22;24126;52.672;13.622;2024-02-15T00:07:53;13.80;88.20
38325;DHT22;24126;52.672;13.622;2024-02-15T00:10:20;13.70;88.20
38325;DHT22;24126;52.672;13.622;2024-02-15T00:12:49;13.80;88.20
38325;DHT22;24126;52.672;13.622;2024-02-15T00:15:16;13.80;88.10
38325;DHT22;24126;52.672;13.622;2024-02-15T00:17:45;13.80;88.10
38325;DHT22;24126;52.672;13.622;2024-02-15T00:20:13;13.80;88.00
38325;DHT22;24126;52.672;13.622;2024-02-15T00:22:40;13.80;88.00
38325;DHT22;24126;52.672;13.622;2024-02-15T00:25:08;13.80;88.00
38325;DHT22;24126;52.672;13.622;2024-02-15T00:27:36;13.80;88.10
38325;DHT22;24126;52.672;13.622;2024-02-15T00:30:04;13.80;88.00
38325;DHT22;24126;52.672;13.622;2024-02-15T00:32:33;13.80;88.00
38325;DHT22;24126;52.672;13.622;2024-02-15T00:35:03;13.80;88.00
38325;DHT22;24126;52.672;13.622;2024-02-15T00:37:33;13.80;88.00
38325;DHT22;24126;52.672;13.622;2024-02-15T00:40:00;13.80;88.00
38325;DHT22;24126;52.672;13.622;2024-02-15T00:42:30;13.80;88.00
38325;DHT22;24126;52.672;13.622;2024-02-15T00:44:58;13.80;88.10
38325;DHT22;24126;52.672;13.622;2024-02-15T00:49:59;13.80;88.20
38325;DHT22;24126;52.672;13.622;2024-02-15T00:52:26;13.80;88.20
38325;DHT22;24126;52.672;13.622;2024-02-15T00:54:55;13.80;88.20
38325;DHT22;24126;52.672;13.622;2024-02-15T00:57:22;13.80;88.20
38325;DHT22;24126;52.672;13.622;2024-02-15T00:59:53;13.80;88.20
38325;DHT22;24126;52.672;13.622;2024-02-15T01:02:20;13.80;88.20
38325;DHT22;24126;52.672;13.622;2024-02-15T01:04:47;13.80;88.20
38325;DHT22;24126;52.672;13.622;2024-02-15T01:07:16;13.80;88.20
38325;DHT22;24126;52.672;13.622;2024-02-15T01:09:43;13.80;88.20
38325;DHT22;24126;52.672;13.622;2024-02-15T01:12:11;13.80;88.20
38325;DHT22;24126;52.672;13.622;2024-02-15T01:14:38;13.80;88.20
38325;DHT22;24126;52.672;13.622;2024-02-15T01:17:06;13.80;88.20
38325;DHT22;24126;52.672;13.622;2024-02-15T01:19:33;13.80;88.20
38325;DHT22;24126;52.672;13.622;2024-02-15T01:22:01;13.80;88.20
38325;DHT22;24126;52.672;13.622;2024-02-15T01:24:28;13.80;88.20
38325;DHT22;24126;52.672;13.622;2024-02-15T01:26:56;13.80;88.20
38325;DHT22;24126;52.672;13.622;2024-02-15T01:29:23;13.80;88.20
38325;DHT22;24126;52.672;13.622;2024-02-15T01:31:51;13.80;88.30
38325;DHT22;24126;52.672;13.622;2024-02-15T01:34:19;13.80;88.30
38325;DHT22;24126;52.672;13.622;2024-02-15T01:36:50;13.80;88.20
38325;DHT22;24126;52.672;13.622;2024-02-15T01:39:17;13.80;88.40
38325;DHT22;24126;52.672;13.622;2024-02-15T01:41:47;13.80;88.30
38325;DHT22;24126;52.672;13.622;2024-02-15T01:44:17;13.80;88.40
38325;DHT22;24126;52.672;13.622;2024-02-15T01:46:47;13.90;88.40
38325;DHT22;24126;52.672;13.622;2024-02-15T01:49:14;13.90;88.30
38325;DHT22;24126;52.672;13.622;2024-02-15T01:51:42;13.90;88.30
38325;DHT22;24126;52.672;13.622;2024-02-15T01:54:11;13.90;88.30
38325;DHT22;24126;52.672;13.622;2024-02-15T01:56:38;13.90;88.30
38325;DHT22;24126;52.672;13.622;2024-02-15T01:59:06;13.90;88.30
38325;DHT22;24126;52.672;13.622;2024-02-15T02:01:33;13.90;88.40
38325;DHT22;24126;52.672;13.622;2024-02-15T02:04:00;13.80;88.40
38325;DHT22;24126;52.672;13.622;2024-02-15T02:06:27;13.80;88.40
38325;DHT22;24126;52.672;13.622;2024-02-15T02:08:55;13.80;88.50
38325;DHT22;24126;52.672;13.622;2024-02-15T02:13:55;13.80;88.50
38325;DHT22;24126;52.672;13.622;2024-02-15T02:16:32;13.80;88.50
38325;DHT22;24126;52.672;13.622;2024-02-15T02:19:01;13.80;88.60
38325;DHT22;24126;52.672;13.622;2024-02-15T02:24:09;13.90;88.50
38325;DHT22;24126;52.672;13.622;2024-02-15T02:26:38;13.90;88.60
38325;DHT22;24126;52.672;13.622;2024-02-15T02:29:05;13.90;88.60
38325;DHT22;24126;52.672;13.622;2024-02-15T02:31:36;13.90;88.60
38325;DHT22;24126;52.672;13.622;2024-02-15T02:34:03;13.90;88.80
38325;DHT22;24126;52.672;13.622;2024-02-15T02:36:32;13.90;88.50
38325;DHT22;24126;52.672;13.622;2024-02-15T02:38:59;13.90;88.50
38325;DHT22;24126;52.672;13.622;2024-02-15T02:41:27;13.90;88.40
38325;DHT22;24126;52.672;13.622;2024-02-15T02:43:56;13.90;88.40
38325;DHT22;24126;52.672;13.622;2024-02-15T02:46:23;13.90;88.40
38325;DHT22;24126;52.672;13.622;2024-02-15T02:48:51;13.90;88.40
38325;DHT22;24126;52.672;13.622;2024-02-15T02:51:18;13.90;88.40
38325;DHT22;24126;52.672;13.622;2024-02-15T02:53:46;13.90;88.50
38325;DHT22;24126;52.672;13.622;2024-02-15T02:56:13;13.90;88.60
38325;DHT22;24126;52.672;13.622;2024-02-15T02:58:40;13.90;88.60
38325;DHT22;24126;52.672;13.622;2024-02-15T03:01:09;13.90;88.60
38325;DHT22;24126;52.672;13.622;2024-02-15T03:03:36;13.90;88.60
38325;DHT22;24126;52.672;13.622;2024-02-15T03:06:05;13.90;88.60
38325;DHT22;24126;52.672;13.622;2024-02-15T03:08:33;13.90;88.70
38325;DHT22;24126;52.672;13.622;2024-02-15T03:11:00;13.90;88.60
38325;DHT22;24126;52.672;13.622;2024-02-15T03:13:27;13.90;88.60
38325;DHT22;24126;52.672;13.622;2024-02-15T03:15:54;13.90;88.70
38325;DHT22;24126;52.672;13.622;2024-02-15T03:18:22;13.90;88.70
38325;DHT22;24126;52.672;13.622;2024-02-15T03:20:50;13.90;88.60
38325;DHT22;24126;52.672;13.622;2024-02-15T03:23:17;13.90;88.70
38325;DHT22;24126;52.672;13.622;2024-02-15T03:25:45;13.90;88.70
38325;DHT22;24126;52.672;13.622;2024-02-15T03:28:13;13.90;88.80
38325;DHT22;24126;52.672;13.622;2024-02-15T03:30:41;13.90;88.80
38325;DHT22;24126;52.672;13.622;2024-02-15T03:33:09;13.90;88.90
38325;DHT22;24126;52.672;13.622;2024-02-15T03:35:36;13.90;88.90
38325;DHT22;24126;52.672;13.622;2024-02-15T03:38:03;14.00;89.00
38325;DHT22;24126;52.672;13.622;2024-02-15T03:40:31;14.00;88.90
38325;DHT22;24126;52.672;13.622;2024-02-15T03:42:58;14.00;88.90
38325;DHT22;24126;52.672;13.622;2024-02-15T03:45:25;14.00;88.90
38325;DHT22;24126;52.672;13.622;2024-02-15T03:47:52;13.90;88.80
38325;DHT22;24126;52.672;13.622;2024-02-15T03:50:20;14.00;88.80
38325;DHT22;24126;52.672;13.622;2024-02-15T03:52:48;14.00;88.80
38325;DHT22;24126;52.672;13.622;2024-02-15T03:55:15;14.00;88.80
38325;DHT22;24126;52.672;13.622;2024-02-15T03:57:42;14.00;88.80
38325;DHT22;24126;52.672;13.622;2024-02-15T04:00:12;14.00;88.70
38325;DHT22;24126;52.672;13.622;2024-02-15T04:02:40;14.00;88.80
38325;DHT22;24126;52.672;13.622;2024-02-15T04:05:07;14.00;88.80
38325;DHT22;24126;52.672;13.622;2024-02-15T04:07:35;14.00;88.80
38325;DHT22;24126;52.672;13.622;2024-02-15T04:10:03;14.00;88.80
38325;DHT22;24126;52.672;13.622;2024-02-15T04:12:32;14.00;88.90
38325;DHT22;24126;52.672;13.622;2024-02-15T04:14:59;14.00;88.90
38325;DHT22;24126;52.672;13.622;2024-02-15T04:17:31;14.00;88.90
38325;DHT22;24126;52.672;13.622;2024-02-15T04:20:00;14.00;88.90
38325;DHT22;24126;52.672;13.622;2024-02-15T04:22:30;14.00;88.90
38325;DHT22;24126;52.672;13.622;2024-02-15T04:25:07;14.00;88.90
38325;DHT22;24126;52.672;13.622;2024-02-15T04:27:35;14.00;89.00
38325;DHT22;24126;52.672;13.622;2024-02-15T04:30:02;14.00;88.90
38325;DHT22;24126;52.672;13.622;2024-02-15T04:32:30;14.00;89.00
38325;DHT22;24126;52.672;13.622;2024-02-15T04:35:00;14.00;89.00
38325;DHT22;24126;52.672;13.622;2024-02-15T04:37:30;14.00;89.00
38325;DHT22;24126;52.672;13.622;2024-02-15T04:39:58;14.00;89.00
38325;DHT22;24126;52.672;13.622;2024-02-15T04:42:32;14.00;89.00
38325;DHT22;24126;52.672;13.622;2024-02-15T04:45:00;14.00;89.00
38325;DHT22;24126;52.672;13.622;2024-02-15T04:47:36;14.00;89.10
38325;DHT22;24126;52.672;13.622;2024-02-15T04:50:03;14.00;89.10
38325;DHT22;24126;52.672;13.622;2024-02-15T04:52:31;14.10;89.20
38325;DHT22;24126;52.672;13.622;2024-02-15T04:54:59;14.00;89.10
38325;DHT22;24126;52.672;13.622;2024-02-15T04:57:26;14.10;89.10
38325;DHT22;24126;52.672;13.622;2024-02-15T04:59:54;14.10;89.10
38325;DHT22;24126;52.672;13.622;2024-02-15T05:02:22;14.10;89.10
38325;DHT22;24126;52.672;13.622;2024-02-15T05:07:43;14.10;89.10
38325;DHT22;24126;52.672;13.622;2024-02-15T05:10:10;14.10;89.10
38325;DHT22;24126;52.672;13.622;2024-02-15T05:12:38;14.10;89.10
38325;DHT22;24126;52.672;13.622;2024-02-15T05:15:05;14.10;89.20
38325;DHT22;24126;52.672;13.622;2024-02-15T05:17:37;14.10;89.20
38325;DHT22;24126;52.672;13.622;2024-02-15T05:20:07;14.10;89.30
38325;DHT22;24126;52.672;13.622;2024-02-15T05:22:37;14.10;89.30
38325;DHT22;24126;52.672;13.622;2024-02-15T05:25:06;14.10;89.30
38325;DHT22;24126;52.672;13.622;2024-02-15T05:27:35;14.10;89.30
38325;DHT22;24126;52.672;13.622;2024-02-15T05:30:02;14.10;89.30
38325;DHT22;24126;52.672;13.622;2024-02-15T05:32:34;14.10;89.30
38325;DHT22;24126;52.672;13.622;2024-02-15T05:35:10;14.10;89.30
38325;DHT22;24126;52.672;13.622;2024-02-15T05:37:37;14.10;89.30
38325;DHT22;24126;52.672;13.622;2024-02-15T05:40:05;14.20;89.30
38325;DHT22;24126;52.672;13.622;2024-02-15T05:42:34;14.20;89.30
38325;DHT22;24126;52.672;13.622;2024-02-15T05:45:47;14.20;89.30
38325;DHT22;24126;52.672;13.622;2024-02-15T05:50:42;14.20;89.30
38325;DHT22;24126;52.672;13.622;2024-02-15T05:53:09;14.20;89.20
38325;DHT22;24126;52.672;13.622;2024-02-15T05:55:36;14.20;89.30
38325;DHT22;24126;52.672;13.622;2024-02-15T05:58:08;14.20;89.30
38325;DHT22;24126;52.672;13.622;2024-02-15T06:00:37;14.20;89.30
38325;DHT22;24126;52.672;13.622;2024-02-15T06:03:06;14.20;89.30
38325;DHT22;24126;52.672;13.622;2024-02-15T06:05:35;14.20;89.30
38325;DHT22;24126;52.672;13.622;2024-02-15T06:08:02;14.20;89.30
38325;DHT22;24126;52.672;13.622;2024-02-15T06:10:30;14.20;89.30
38325;DHT22;24126;52.672;13.622;2024-02-15T06:12:57;14.20;89.30
38325;DHT22;24126;52.672;13.622;2024-02-15T06:15:25;14.20;89.30
38325;DHT22;24126;52.672;13.622;2024-02-15T06:17:53;14.20;89.30
38325;DHT22;24126;52.672;13.622;2024-02-15T06:20:21;14.30;89.30
38325;DHT22;24126;52.672;13.622;2024-02-15T06:22:48;14.30;89.30
38325;DHT22;24126;52.672;13.622;2024-02-15T06:25:17;14.30;89.30
38325;DHT22;24126;52.672;13.622;2024-02-15T06:27:47;14.30;89.30
38325;DHT22;24126;52.672;13.622;2024-02-15T06:30:15;14.30;89.40
38325;DHT22;24126;52.672;13.622;2024-02-15T06:33:00;14.30;89.40
38325;DHT22;24126;52.672;13.622;2024-02-15T06:35:44;14.30;89.40
38325;DHT22;24126;52.672;13.622;2024-02-15T06:38:29;14.30;89.40
38325;DHT22;24126;52.672;13.622;2024-02-15T06:41:14;14.30;89.40
38325;DHT22;24126;52.672;13.622;2024-02-15T06:43:46;14.30;89.40
38325;DHT22;24126;52.672;13.622;2024-02-15T06:46:13;14.30;89.40
38325;DHT22;24126;52.672;13.622;2024-02-15T06:48:43;14.30;89.40
38325;DHT22;24126;52.672;13.622;2024-02-15T06:51:14;14.30;89.40
38325;DHT22;24126;52.672;13.622;2024-02-15T06:53:42;14.30;89.50
38325;DHT22;24126;52.672;13.622;2024-02-15T06:56:15;14.30;89.40
38325;DHT22;24126;52.672;13.622;2024-02-15T06:58:42;14.30;89.50
38325;DHT22;24126;52.672;13.622;2024-02-15T07:01:10;14.30;89.50
38325;DHT22;24126;52.672;13.622;2024-02-15T07:03:39;14.30;89.60
38325;DHT22;24126;52.672;13.622;2024-02-15T07:06:06;14.30;89.60
38325;DHT22;24126;52.672;13.622;2024-02-15T07:08:33;14.40;89.70
38325;DHT22;24126;52.672;13.622;2024-02-15T07:11:01;14.40;89.60
38325;DHT22;24126;52.672;13.622;2024-02-15T07:13:29;14.40;89.70
38325;DHT22;24126;52.672;13.622;2024-02-15T07:15:57;14.40;89.60
38325;DHT22;24126;52.672;13.622;2024-02-15T07:18:24;14.50;89.70
38325;DHT22;24126;52.672;13.622;2024-02-15T07:20:51;14.50;90.10
38325;DHT22;24126;52.672;13.622;2024-02-15T07:23:18;14.50;89.60
38325;DHT22;24126;52.672;13.622;2024-02-15T07:25:46;14.50;89.60
38325;DHT22;24126;52.672;13.622;2024-02-15T07:28:14;14.50;89.60
38325;DHT22;24126;52.672;13.622;2024-02-15T07:30:42;14.50;89.60
38325;DHT22;24126;52.672;13.622;2024-02-15T07:33:09;14.60;89.60
38325;DHT22;24126;52.672;13.622;2024-02-15T07:35:37;14.60;89.60
38325;DHT22;24126;52.672;13.622;2024-02-15T07:38:04;14.60;89.60
38325;DHT22;24126;52.672;13.622;2024-02-15T07:40:31;14.60;89.60
38325;DHT22;24126;52.672;13.622;2024-02-15T07:42:59;14.60;89.60
38325;DHT22;24126;52.672;13.622;2024-02-15T07:45:29;14.60;89.60
38325;DHT22;24126;52.672;13.622;2024-02-15T07:47:59;14.60;89.50
38325;DHT22;24126;52.672;13.622;2024-02-15T07:50:26;14.60;89.50
38325;DHT22;24126;52.672;13.622;2024-02-15T07:52:56;14.60;89.50
38325;DHT22;24126;52.672;13.622;2024-02-15T07:55:24;14.60;89.80
38325;DHT22;24126;52.672;13.622;2024-02-15T07:57:51;14.60;89.70
38325;DHT22;24126;52.672;13.622;2024-02-15T08:00:19;14.70;89.70
38325;DHT22;24126;52.672;13.622;2024-02-15T08:02:46;14.70;89.70
38325;DHT22;24126;52.672;13.622;2024-02-15T08:05:13;14.70;89.70
38325;DHT22;24126;52.672;13.622;2024-02-15T08:07:41;14.70;89.80
38325;DHT22;24126;52.672;13.622;2024-02-15T08:10:10;14.70;89.70
38325;DHT22;24126;52.672;13.622;2024-02-15T08:12:39;14.70;89.70
38325;DHT22;24126;52.672;13.622;2024-02-15T08:15:07;14.80;89.80
38325;DHT22;24126;52.672;13.622;2024-02-15T08:17:38;14.80;89.70
38325;DHT22;24126;52.672;13.622;2024-02-15T08:20:15;14.80;89.80
38325;DHT22;24126;52.672;13.622;2024-02-15T08:22:47;14.80;89.80
38325;DHT22;24126;52.672;13.622;2024-02-15T08:25:14;14.90;89.80
38325;DHT22;24126;52.672;13.622;2024-02-15T08:27:46;14.90;89.80
38325;DHT22;24126;52.672;13.622;2024-02-15T08:30:15;14.90;89.80
38325;DHT22;24126;52.672;13.622;2024-02-15T08:32:43;15.00;89.80
38325;DHT22;24126;52.672;13.622;2024-02-15T08:35:12;15.00;89.70
38325;DHT22;24126;52.672;13.622;2024-02-15T08:37:40;15.00;89.60
38325;DHT22;24126;52.672;13.622;2024-02-15T08:40:08;15.00;89.60
38325;DHT22;24126;52.672;13.622;2024-02-15T08:42:38;15.10;89.70
38325;DHT22;24126;52.672;13.622;2024-02-15T08:45:05;15.10;89.70
38325;DHT22;24126;52.672;13.622;2024-02-15T08:47:36;15.10;89.70
38325;DHT22;24126;52.672;13.622;2024-02-15T08:50:05;15.10;89.60
38325;DHT22;24126;52.672;13.622;2024-02-15T08:52:32;15.10;89.60
38325;DHT22;24126;52.672;13.622;2024-02-15T08:54:59;15.10;89.60
38325;DHT22;24126;52.672;13.622;2024-02-15T08:57:26;15.20;89.60
38325;DHT22;24126;52.672;13.622;2024-02-15T08:59:54;15.20;89.60
38325;DHT22;24126;52.672;13.622;2024-02-15T09:02:21;15.20;89.60
38325;DHT22;24126;52.672;13.622;2024-02-15T09:04:48;15.20;89.70
38325;DHT22;24126;52.672;13.622;2024-02-15T09:07:15;15.20;89.80
38325;DHT22;24126;52.672;13.622;2024-02-15T09:09:43;15.20;89.80
38325;DHT22;24126;52.672;13.622;2024-02-15T09:12:10;15.20;89.80
38325;DHT22;24126;52.672;13.622;2024-02-15T09:14:38;15.30;89.80
38325;DHT22;24126;52.672;13.622;2024-02-15T09:17:05;15.30;89.90
38325;DHT22;24126;52.672;13.622;2024-02-15T09:19:36;15.30;89.90
38325;DHT22;24126;52.672;13.622;2024-02-15T09:22:03;15.30;89.90
38325;DHT22;24126;52.672;13.622;2024-02-15T09:24:32;15.30;89.90
38325;DHT22;24126;52.672;13.622;2024-02-15T09:27:01;15.40;90.00
38325;DHT22;24126;52.672;13.622;2024-02-15T09:29:28;15.40;89.90
38325;DHT22;24126;52.672;13.622;2024-02-15T09:31:58;15.40;89.70
38325;DHT22;24126;52.672;13.622;2024-02-15T09:34:27;15.40;89.80
38325;DHT22;24126;52.672;13.622;2024-02-15T09:36:55;15.50;90.00
38325;DHT22;24126;52.672;13.622;2024-02-15T09:39:27;15.50;89.70
38325;DHT22;24126;52.672;13.622;2024-02-15T09:41:54;15.60;89.90
38325;DHT22;24126;52.672;13.622;2024-02-15T09:44:25;15.60;90.00
38325;DHT22;24126;52.672;13.622;2024-02-15T09:47:01;15.60;89.80
38325;DHT22;24126;52.672;13.622;2024-02-15T09:49:35;15.70;89.90
38325;DHT22;24126;52.672;13.622;2024-02-15T09:52:02;15.70;89.80
38325;DHT22;24126;52.672;13.622;2024-02-15T09:54:30;15.80;89.90
38325;DHT22;24126;52.672;13.622;2024-02-15T09:56:58;15.80;89.80
38325;DHT22;24126;52.672;13.622;2024-02-15T09:59:28;15.80;89.70
38325;DHT22;24126;52.672;13.622;2024-02-15T10:01:58;15.80;89.60
38325;DHT22;24126;52.672;13.622;2024-02-15T10:04:30;15.90;89.50
38325;DHT22;24126;52.672;13.622;2024-02-15T10:07:00;15.90;89.50
38325;DHT22;24126;52.672;13.622;2024-02-15T10:09:28;15.90;89.40
38325;DHT22;24126;52.672;13.622;2024-02-15T10:11:56;15.90;89.40
38325;DHT22;24126;52.672;13.622;2024-02-15T10:14:24;15.90;89.40
38325;DHT22;24126;52.672;13.622;2024-02-15T10:16:52;15.80;89.40
38325;DHT22;24126;52.672;13.622;2024-02-15T10:19:20;15.80;89.40
38325;DHT22;24126;52.672;13.622;2024-02-15T10:21:53;15.80;89.40
38325;DHT22;24126;52.672;13.622;2024-02-15T10:24:23;15.80;89.50
38325;DHT22;24126;52.672;13.622;2024-02-15T10:26:51;15.80;89.30
38325;DHT22;24126;52.672;13.622;2024-02-15T10:29:19;15.80;89.40
38325;DHT22;24126;52.672;13.622;2024-02-15T10:31:54;15.80;89.50
38325;DHT22;24126;52.672;13.622;2024-02-15T10:34:28;15.80;89.60
38325;DHT22;24126;52.672;13.622;2024-02-15T10:39:53;15.90;89.60
38325;DHT22;24126;52.672;13.622;2024-02-15T10:42:31;15.90;89.60
38325;DHT22;24126;52.672;13.622;2024-02-15T10:45:01;15.90;89.50
38325;DHT22;24126;52.672;13.622;2024-02-15T10:47:30;16.00;89.50
38325;DHT22;24126;52.672;13.622;2024-02-15T10:49:59;16.00;89.40
38325;DHT22;24126;52.672;13.622;2024-02-15T10:52:27;16.00;89.50
38325;DHT22;24126;52.672;13.622;2024-02-15T10:55:01;16.00;89.50
38325;DHT22;24126;52.672;13.622;2024-02-15T10:57:33;16.00;89.60
38325;DHT22;24126;52.672;13.622;2024-02-15T11:00:04;16.10;89.50
38325;DHT22;24126;52.672;13.622;2024-02-15T11:02:37;16.10;89.50
38325;DHT22;24126;52.672;13.622;2024-02-15T11:05:07;16.10;89.40
38325;DHT22;24126;52.672;13.622;2024-02-15T11:07:36;16.20;89.50
38325;DHT22;24126;52.672;13.622;2024-02-15T11:10:05;16.20;89.40
38325;DHT22;24126;52.672;13.622;2024-02-15T11:12:34;16.20;89.40
38325;DHT22;24126;52.672;13.622;2024-02-15T11:15:02;16.20;89.40
38325;DHT22;24126;52.672;13.622;2024-02-15T11:20:06;16.30;89.40
38325;DHT22;24126;52.672;13.622;2024-02-15T11:22:35;16.40;89.40
38325;DHT22;24126;52.672;13.622;2024-02-15T11:25:03;16.40;89.40
38325;DHT22;24126;52.672;13.622;2024-02-15T11:27:35;16.40;89.40
38325;DHT22;24126;52.672;13.622;2024-02-15T11:30:10;16.50;89.30
38325;DHT22;24126;52.672;13.622;2024-02-15T11:35:11;16.40;89.30
38325;DHT22;24126;52.672;13.622;2024-02-15T11:42:53;16.50;89.30
38325;DHT22;24126;52.672;13.622;2024-02-15T11:45:21;16.50;89.30
38325;DHT22;24126;52.672;13.622;2024-02-15T11:50:20;16.60;89.50
38325;DHT22;24126;52.672;13.622;2024-02-15T11:52:48;16.60;89.60
38325;DHT22;24126;52.672;13.622;2024-02-15T11:55:19;16.70;89.60
38325;DHT22;24126;52.672;13.622;2024-02-15T11:57:59;16.80;89.50
38325;DHT22;24126;52.672;13.622;2024-02-15T12:00:43;16.80;89.40
38325;DHT22;24126;52.672;13.622;2024-02-15T12:03:28;16.90;89.20
38325;DHT22;24126;52.672;13.622;2024-02-15T12:06:17;16.90;89.10
38325;DHT22;24126;52.672;13.622;2024-02-15T12:09:02;16.90;89.10
38325;DHT22;24126;52.672;13.622;2024-02-15T12:11:46;16.90;89.10
38325;DHT22;24126;52.672;13.622;2024-02-15T12:14:31;16.90;89.10
38325;DHT22;24126;52.672;13.622;2024-02-15T12:17:16;16.90;89.20
38325;DHT22;24126;52.672;13.622;2024-02-15T12:20:01;16.90;89.20
38325;DHT22;24126;52.672;13.622;2024-02-15T12:22:34;17.00;89.20
38325;DHT22;24126;52.672;13.622;2024-02-15T12:27:38;17.00;89.20
38325;DHT22;24126;52.672;13.622;2024-02-15T12:30:05;17.10;89.20
38325;DHT22;24126;52.672;13.622;2024-02-15T12:32:34;17.10;89.20
38325;DHT22;24126;52.672;13.622;2024-02-15T12:35:11;17.00;89.10
38325;DHT22;24126;52.672;13.622;2024-02-15T12:37:42;17.10;89.20
38325;DHT22;24126;52.672;13.622;2024-02-15T12:40:20;17.10;89.20
38325;DHT22;24126;52.672;13.622;2024-02-15T12:42:48;17.10;89.10
38325;DHT22;24126;52.672;13.622;2024-02-15T12:45:19;17.10;88.90
38325;DHT22;24126;52.672;13.622;2024-02-15T12:47:48;17.10;89.00
38325;DHT22;24126;52.672;13.622;2024-02-15T12:50:17;17.10;89.10
38325;DHT22;24126;52.672;13.622;2024-02-15T12:52:50;17.10;89.20
38325;DHT22;24126;52.672;13.622;2024-02-15T12:55:22;17.10;89.30
38325;DHT22;24126;52.672;13.622;2024-02-15T12:57:51;17.10;89.30
38325;DHT22;24126;52.672;13.622;2024-02-15T13:00:19;17.20;90.00
38325;DHT22;24126;52.672;13.622;2024-02-15T13:05:25;17.20;89.40
38325;DHT22;24126;52.672;13.622;2024-02-15T13:07:53;17.30;89.40
38325;DHT22;24126;52.672;13.622;2024-02-15T13:10:23;17.30;89.30
38325;DHT22;24126;52.672;13.622;2024-02-15T13:12:54;17.30;89.20
38325;DHT22;24126;52.672;13.622;2024-02-15T13:15:21;17.30;89.20
38325;DHT22;24126;52.672;13.622;2024-02-15T13:17:54;17.30;89.10
38325;DHT22;24126;52.672;13.622;2024-02-15T13:20:22;17.40;89.10
38325;DHT22;24126;52.672;13.622;2024-02-15T13:22:58;17.40;89.20
38325;DHT22;24126;52.672;13.622;2024-02-15T13:25:28;17.40;89.00
38325;DHT22;24126;52.672;13.622;2024-02-15T13:27:55;17.40;89.00
38325;DHT22;24126;52.672;13.622;2024-02-15T13:30:23;17.40;89.00
38325;DHT22;24126;52.672;13.622;2024-02-15T13:32:54;17.40;89.00
38325;DHT22;24126;52.672;13.622;2024-02-15T13:35:21;17.40;89.00
38325;DHT22;24126;52.672;13.622;2024-02-15T13:37:49;17.40;89.00
38325;DHT22;24126;52.672;13.622;2024-02-15T13:40:20;17.40;88.90
38325;DHT22;24126;52.672;13.622;2024-02-15T13:42:51;17.40;88.90
38325;DHT22;24126;52.672;13.622;2024-02-15T13:45:20;17.40;88.80
38325;DHT22;24126;52.672;13.622;2024-02-15T13:47:49;17.40;88.80
38325;DHT22;24126;52.672;13.622;2024-02-15T13:50:16;17.40;88.80
38325;DHT22;24126;52.672;13.622;2024-02-15T13:52:44;17.40;88.90
38325;DHT22;24126;52.672;13.622;2024-02-15T13:55:17;17.40;89.00
38325;DHT22;24126;52.672;13.622;2024-02-15T13:57:47;17.40;89.00
38325;DHT22;24126;52.672;13.622;2024-02-15T14:00:15;17.40;88.90
38325;DHT22;24126;52.672;13.622;2024-02-15T14:02:52;17.40;89.00
38325;DHT22;24126;52.672;13.622;2024-02-15T14:05:20;17.40;89.00
38325;DHT22;24126;52.672;13.622;2024-02-15T14:10:22;17.40;88.80
38325;DHT22;24126;52.672;13.622;2024-02-15T14:12:50;17.40;88.70
38325;DHT22;24126;52.672;13.622;2024-02-15T14:15:21;17.40;88.80
38325;DHT22;24126;52.672;13.622;2024-02-15T14:17:49;17.50;88.80
38325;DHT22;24126;52.672;13.622;2024-02-15T14:20:16;17.50;88.80
38325;DHT22;24126;52.672;13.622;2024-02-15T14:22:45;17.50;88.70
38325;DHT22;24126;52.672;13.622;2024-02-15T14:25:15;17.40;88.60
38325;DHT22;24126;52.672;13.622;2024-02-15T14:27:42;17.50;88.60
38325;DHT22;24126;52.672;13.622;2024-02-15T14:30:10;17.50;88.70
38325;DHT22;24126;52.672;13.622;2024-02-15T14:33:00;17.50;88.70
38325;DHT22;24126;52.672;13.622;2024-02-15T14:35:33;17.50;88.50
38325;DHT22;24126;52.672;13.622;2024-02-15T14:38:05;17.50;88.50
38325;DHT22;24126;52.672;13.622;2024-02-15T14:40:35;17.40;88.50
38325;DHT22;24126;52.672;13.622;2024-02-15T14:43:02;17.50;88.60
38325;DHT22;24126;52.672;13.622;2024-02-15T14:45:35;17.40;88.40
38325;DHT22;24126;52.672;13.622;2024-02-15T14:48:02;17.40;88.50
38325;DHT22;24126;52.672;13.622;2024-02-15T14:50:30;17.40;88.50
38325;DHT22;24126;52.672;13.622;2024-02-15T14:52:57;17.40;88.50
38325;DHT22;24126;52.672;13.622;2024-02-15T14:55:24;17.40;88.40
38325;DHT22;24126;52.672;13.622;2024-02-15T14:57:51;17.40;88.30
38325;DHT22;24126;52.672;13.622;2024-02-15T15:00:19;17.40;88.20
38325;DHT22;24126;52.672;13.622;2024-02-15T15:02:47;17.40;88.20
38325;DHT22;24126;52.672;13.622;2024-02-15T15:05:15;17.30;88.10
38325;DHT22;24126;52.672;13.622;2024-02-15T15:07:59;17.30;88.20
38325;DHT22;24126;52.672;13.622;2024-02-15T15:10:44;17.20;88.20
38325;DHT22;24126;52.672;13.622;2024-02-15T15:13:30;17.20;88.30
38325;DHT22;24126;52.672;13.622;2024-02-15T15:15:58;17.10;88.30
38325;DHT22;24126;52.672;13.622;2024-02-15T15:18:25;17.10;88.40
38325;DHT22;24126;52.672;13.622;2024-02-15T15:20:53;17.10;88.30
38325;DHT22;24126;52.672;13.622;2024-02-15T15:23:21;17.10;88.40
38325;DHT22;24126;52.672;13.622;2024-02-15T15:25:48;17.10;88.40
38325;DHT22;24126;52.672;13.622;2024-02-15T15:28:16;17.10;88.30
38325;DHT22;24126;52.672;13.622;2024-02-15T15:30:44;17.10;88.40
38325;DHT22;24126;52.672;13.622;2024-02-15T15:35:47;17.00;88.40
38325;DHT22;24126;52.672;13.622;2024-02-15T15:38:14;17.00;88.40
38325;DHT22;24126;52.672;13.622;2024-02-15T15:40:42;16.90;88.40
38325;DHT22;24126;52.672;13.622;2024-02-15T15:43:09;17.00;88.50
38325;DHT22;24126;52.672;13.622;2024-02-15T15:45:38;17.00;88.40
38325;DHT22;24126;52.672;13.622;2024-02-15T15:48:14;17.00;88.40
38325;DHT22;24126;52.672;13.622;2024-02-15T15:53:35;16.90;88.30
38325;DHT22;24126;52.672;13.622;2024-02-15T15:56:06;16.90;88.20
38325;DHT22;24126;52.672;13.622;2024-02-15T15:58:35;16.90;88.30
38325;DHT22;24126;52.672;13.622;2024-02-15T16:01:02;16.90;88.30
38325;DHT22;24126;52.672;13.622;2024-02-15T16:03:30;16.80;88.30
38325;DHT22;24126;52.672;13.622;2024-02-15T16:05:57;16.80;88.40
38325;DHT22;24126;52.672;13.622;2024-02-15T16:08:24;16.80;88.30
38325;DHT22;24126;52.672;13.622;2024-02-15T16:13:32;16.80;88.40